Time;durP1;ratioP1;P1;durP2;ratioP2;P2;SDS_P1;SDS_P2;PMS_P1;PMS_P2;Temp;Humidity;BMP_temperature;BMP_pressure;BME280_temperature;BME280_humidity;BME280_pressure;Samples;Min_cycle;Max_cycle;Signal;HPM_P1;HPM_P2
2023/04/04 00:00:03;;;;;;;4.55;2.50;;;;;;;-0.81;89.15;102564.38;4903662;29;20194;-67
2023/04/04 00:02:35;;;;;;;6.05;3.30;;;;;;;-0.90;89.06;102567.56;4898594;29;20194;-66
2023/04/04 00:05:05;;;;;;;5.03;2.25;;;;;;;-0.89;89.68;102563.97;4889753;29;20234;-67
2023/04/04 00:07:34;;;;;;;4.60;2.15;;;;;;;-0.93;89.75;102567.75;4898013;29;20221;-67
2023/04/04 00:10:03;;;;;;;2.40;2.17;;;;;;;-0.92;89.42;102559.66;4899885;29;20232;-65
2023/04/04 00:12:32;;;;;;;11.27;2.90;;;;;;;-0.82;89.06;102560.00;4905332;29;20214;-67
2023/04/04 00:15:01;;;;;;;5.82;2.65;;;;;;;-0.96;89.57;102555.47;4898388;29;20190;-66
2023/04/04 00:17:30;;;;;;;3.33;2.30;;;;;;;-1.01;89.69;102559.34;4905347;29;20699;-67
2023/04/04 00:20:03;;;;;;;6.47;2.60;;;;;;;-1.04;90.60;102556.88;4881755;29;20214;-67
2023/04/04 00:22:32;;;;;;;3.65;2.15;;;;;;;-1.06;89.95;102545.47;4905416;29;20219;-68
2023/04/04 00:25:01;;;;;;;3.42;2.00;;;;;;;-1.07;90.18;102559.72;4898000;29;20214;-67
2023/04/04 00:27:30;;;;;;;5.22;1.98;;;;;;;-1.10;90.35;102554.56;4900328;29;20202;-67
2023/04/04 00:29:59;;;;;;;3.20;2.67;;;;;;;-1.16;91.01;102554.91;4899343;29;20701;-67
2023/04/04 00:32:28;;;;;;;7.90;2.53;;;;;;;-1.04;90.75;102556.88;4894977;29;20205;-65
2023/04/04 00:34:57;;;;;;;3.65;2.92;;;;;;;-1.11;90.76;102553.69;4894447;29;20186;-68
2023/04/04 00:37:28;;;;;;;4.72;2.33;;;;;;;-1.16;91.18;102552.25;4880630;29;20226;-67
2023/04/04 00:39:57;;;;;;;3.60;3.20;;;;;;;-1.22;90.72;102549.94;4905990;29;20236;-67
2023/04/04 00:42:27;;;;;;;4.35;2.40;;;;;;;-1.26;90.80;102548.41;4895838;29;20686;-65
2023/04/04 00:44:57;;;;;;;5.68;2.45;;;;;;;-1.28;91.35;102555.59;4906187;29;20221;-67
2023/04/04 00:47:29;;;;;;;6.68;2.22;;;;;;;-1.27;90.70;102557.31;4902266;29;20284;-66
2023/04/04 00:49:59;;;;;;;14.48;3.53;;;;;;;-1.29;91.50;102551.22;4901129;29;20249;-67
2023/04/04 00:52:29;;;;;;;4.03;2.63;;;;;;;-1.33;91.12;102554.06;4905976;29;20684;-68
2023/04/04 00:54:59;;;;;;;6.55;2.50;;;;;;;-1.37;91.56;102552.50;4905732;29;20195;-67
2023/04/04 00:57:29;;;;;;;3.60;2.40;;;;;;;-1.42;91.57;102551.91;4903347;29;20225;-67
2023/04/04 00:59:59;;;;;;;4.15;3.05;;;;;;;-1.36;91.81;102548.91;4904410;29;20701;-68
2023/04/04 01:02:28;;;;;;;5.93;3.33;;;;;;;-1.22;92.03;102547.28;4901185;29;20246;-67
2023/04/04 01:04:57;;;;;;;5.35;2.63;;;;;;;-1.31;91.57;102544.19;4906869;29;20233;-66
2023/04/04 01:07:28;;;;;;;8.52;2.55;;;;;;;-1.39;91.79;102543.75;4898535;29;20210;-67
2023/04/04 01:09:58;;;;;;;4.55;2.90;;;;;;;-1.41;92.21;102537.69;4895788;29;20258;-66
2023/04/04 01:12:28;;;;;;;3.90;2.88;;;;;;;-1.38;92.01;102540.16;4880073;29;20255;-66
2023/04/04 01:14:57;;;;;;;6.78;3.28;;;;;;;-1.46;92.40;102537.09;4906500;29;20237;-66
2023/04/04 01:17:27;;;;;;;9.40;2.20;;;;;;;-1.50;92.53;102535.53;4907426;29;20195;-66
2023/04/04 01:20:03;;;;;;;2.80;2.10;;;;;;;-1.48;92.41;102536.31;4898795;29;20225;-67
2023/04/04 01:22:42;;;;;;;6.32;2.42;;;;;;;-1.51;92.32;102531.19;4886230;29;20205;-67
2023/04/04 01:25:13;;;;;;;4.05;2.58;;;;;;;-1.56;92.80;102530.56;4891880;29;20236;-66
2023/04/04 01:27:47;;;;;;;4.53;2.80;;;;;;;-1.58;92.71;102535.09;4905919;29;20653;-66
2023/04/04 01:30:19;;;;;;;5.93;2.85;;;;;;;-1.49;93.00;102534.59;4887723;29;20289;-67
2023/04/04 01:32:54;;;;;;;3.28;2.35;;;;;;;-1.56;92.83;102535.88;4878198;29;20195;-66
2023/04/04 01:35:30;;;;;;;3.88;2.05;;;;;;;-1.58;92.92;102527.13;4901782;29;20212;-67
2023/04/04 01:38:08;;;;;;;4.65;2.58;;;;;;;-1.63;93.49;102531.84;4903124;29;20305;-67
2023/04/04 01:40:41;;;;;;;6.15;3.28;;;;;;;-1.66;93.48;102518.75;4906812;29;20186;-67
2023/04/04 01:43:12;;;;;;;5.22;1.90;;;;;;;-1.65;93.27;102531.09;4879126;29;20221;-65
2023/04/04 01:45:43;;;;;;;4.78;2.55;;;;;;;-1.62;93.30;102520.28;4907653;29;20584;-67
2023/04/04 01:48:15;;;;;;;3.30;1.75;;;;;;;-1.66;93.96;102524.06;4903344;29;20274;-67
2023/04/04 01:50:48;;;;;;;6.15;2.15;;;;;;;-1.56;93.58;102519.97;4887364;29;20266;-66
2023/04/04 01:53:17;;;;;;;2.63;2.03;;;;;;;-1.66;93.38;102516.09;4904350;29;20193;-67
2023/04/04 01:55:46;;;;;;;4.05;3.50;;;;;;;-1.68;94.19;102523.25;4904995;29;20195;-68
2023/04/04 01:58:19;;;;;;;9.07;2.28;;;;;;;-1.66;93.61;102518.75;4889887;29;20569;-66
2023/04/04 02:00:48;;;;;;;5.22;2.78;;;;;;;-1.63;93.70;102517.69;4889034;29;20250;-68
2023/04/04 02:03:17;;;;;;;6.38;3.78;;;;;;;-1.60;93.75;102513.09;4903235;29;20218;-68
2023/04/04 02:05:47;;;;;;;5.97;3.03;;;;;;;-1.66;93.78;102507.25;4886258;29;20214;-68
2023/04/04 02:08:16;;;;;;;9.80;4.20;;;;;;;-1.68;93.78;102504.69;4898992;29;20226;-68
2023/04/04 02:10:52;;;;;;;10.93;3.20;;;;;;;-1.58;93.43;102500.59;4889355;29;20231;-67
2023/04/04 02:13:22;;;;;;;11.00;3.10;;;;;;;-1.45;93.71;102506.06;4902010;29;20613;-66
2023/04/04 02:15:53;;;;;;;9.52;3.40;;;;;;;-1.42;92.80;102498.81;4880035;29;20198;-67
2023/04/04 02:18:23;;;;;;;6.70;2.90;;;;;;;-1.29;92.86;102498.09;4902943;29;20238;-67
2023/04/04 02:20:56;;;;;;;12.45;3.00;;;;;;;-1.35;92.97;102501.94;4884035;29;20229;-67
2023/04/04 02:23:26;;;;;;;5.65;2.30;;;;;;;-1.44;92.94;102498.00;4899292;29;20186;-66
2023/04/04 02:25:55;;;;;;;3.75;2.00;;;;;;;-1.53;93.30;102503.84;4901159;29;20579;-68
2023/04/04 02:28:28;;;;;;;5.97;2.53;;;;;;;-1.55;93.76;102508.38;4881847;29;20226;-66
2023/04/04 02:31:00;;;;;;;5.78;3.50;;;;;;;-1.45;93.80;102500.75;4905472;29;20246;-66
2023/04/04 02:33:30;;;;;;;2.95;1.80;;;;;;;-1.59;93.91;102504.19;4885812;29;20712;-68
2023/04/04 02:36:03;;;;;;;4.13;2.47;;;;;;;-1.60;94.06;102496.31;4886615;29;20202;-68
2023/04/04 02:38:33;;;;;;;3.13;2.17;;;;;;;-1.58;94.16;102497.06;4890269;29;20265;-66
2023/04/04 02:41:05;;;;;;;3.55;3.22;;;;;;;-1.60;93.65;102491.00;4897047;29;20218;-67
2023/04/04 02:43:36;;;;;;;9.57;3.17;;;;;;;-1.69;94.06;102491.53;4878634;29;20216;-67
2023/04/04 02:46:08;;;;;;;3.65;2.22;;;;;;;-1.73;95.38;102488.16;4888895;29;20258;-67
2023/04/04 02:48:50;;;;;;;4.43;2.42;;;;;;;-1.65;94.31;102483.31;4883518;29;20225;-68
2023/04/04 02:51:20;;;;;;;3.67;2.80;;;;;;;-1.78;94.33;102487.53;4901719;29;20213;-67
2023/04/04 02:53:49;;;;;;;3.92;3.08;;;;;;;-1.81;94.65;102479.78;4880874;29;20197;-67
2023/04/04 02:56:27;;;;;;;13.65;2.53;;;;;;;-1.81;95.02;102482.41;4900355;29;20185;-65
2023/04/04 02:58:59;;;;;;;3.83;2.10;;;;;;;-1.84;95.33;102479.94;4878629;29;20226;-67
2023/04/04 03:01:28;;;;;;;6.78;3.15;;;;;;;-1.85;95.56;102480.88;4896770;29;20198;-68
2023/04/04 03:04:02;;;;;;;5.32;2.45;;;;;;;-1.71;95.66;102480.13;4903500;29;20206;-67
2023/04/04 03:06:33;;;;;;;3.33;2.00;;;;;;;-1.67;95.50;102479.84;4883272;29;20231;-68
2023/04/04 03:09:03;;;;;;;3.67;2.10;;;;;;;-1.69;95.20;102476.41;4898146;29;20226;-67
2023/04/04 03:11:33;;;;;;;8.68;2.53;;;;;;;-1.73;95.27;102466.91;4893802;29;20289;-68
2023/04/04 03:14:03;;;;;;;3.28;2.00;;;;;;;-1.81;95.20;102467.34;4889242;29;20194;-67
2023/04/04 03:16:37;;;;;;;4.10;2.50;;;;;;;-1.80;95.29;102466.44;4895611;29;20205;-66
2023/04/04 03:19:07;;;;;;;5.88;2.53;;;;;;;-1.85;95.89;102464.97;4882669;29;20222;-68
2023/04/04 03:21:36;;;;;;;10.55;5.00;;;;;;;-1.75;95.46;102476.78;4896239;29;20234;-67
2023/04/04 03:24:07;;;;;;;11.75;3.90;;;;;;;-1.78;95.26;102471.63;4887304;29;20662;-67
2023/04/04 03:26:36;;;;;;;5.20;2.10;;;;;;;-1.87;95.46;102461.53;4904039;29;20236;-68
2023/04/04 03:32:35;;;;;;;4.68;2.10;;;;;;;-1.98;95.88;102458.59;4896367;29;20222;-67
2023/04/04 03:35:05;;;;;;;8.18;3.15;;;;;;;-2.05;96.89;102454.56;4892513;29;20617;-68
2023/04/04 03:37:35;;;;;;;2.78;2.13;;;;;;;-2.11;97.06;102454.91;4904345;29;20273;-66
2023/04/04 03:40:05;;;;;;;8.30;2.88;;;;;;;-2.12;97.07;102455.81;4908553;29;20690;-67
2023/04/04 03:42:34;;;;;;;3.42;2.03;;;;;;;-2.15;97.13;102448.03;4894398;29;20225;-67
2023/04/04 03:45:09;;;;;;;9.02;2.15;;;;;;;-2.17;97.85;102449.91;4896838;29;20194;-67
2023/04/04 03:47:41;;;;;;;3.45;2.10;;;;;;;-2.20;97.48;102443.84;4888094;29;20213;-67
2023/04/04 03:50:11;;;;;;;5.57;2.30;;;;;;;-2.24;98.23;102444.97;4900121;29;20281;-67
2023/04/04 03:52:47;;;;;;;3.65;2.47;;;;;;;-2.23;98.62;102433.38;4900875;29;20197;-66
2023/04/04 03:55:16;;;;;;;3.67;2.05;;;;;;;-2.26;98.76;102432.72;4904637;29;20202;-66
2023/04/04 03:57:46;;;;;;;7.18;2.83;;;;;;;-2.01;98.05;102426.94;4908933;29;20189;-66
2023/04/04 04:00:16;;;;;;;4.50;2.55;;;;;;;-1.97;97.24;102431.13;4895111;29;20703;-67
2023/04/04 04:02:47;;;;;;;8.45;2.80;;;;;;;-2.17;97.41;102426.03;4881474;29;20212;-67
2023/04/04 04:05:17;;;;;;;8.15;2.30;;;;;;;-2.18;97.87;102427.00;4901367;29;20572;-67
2023/04/04 04:07:46;;;;;;;4.22;2.70;;;;;;;-2.25;97.53;102422.03;4895313;29;20234;-67
2023/04/04 04:10:15;;;;;;;4.10;2.42;;;;;;;-2.34;98.20;102419.88;4883930;29;20298;-67
2023/04/04 04:12:46;;;;;;;6.53;2.75;;;;;;;-2.22;98.34;102432.47;4906711;29;20232;-67
2023/04/04 04:15:15;;;;;;;4.32;2.65;;;;;;;-2.30;98.27;102433.81;4886138;29;20202;-65
2023/04/04 04:17:47;;;;;;;4.53;2.00;;;;;;;-2.26;98.17;102430.91;4883883;29;20297;-68
2023/04/04 04:20:17;;;;;;;6.43;2.97;;;;;;;-2.36;99.44;102434.13;4901114;29;20206;-66
2023/04/04 04:22:50;;;;;;;4.47;2.30;;;;;;;-2.42;99.28;102439.78;4892340;29;20202;-68
2023/04/04 04:25:22;;;;;;;5.20;2.58;;;;;;;-2.45;99.42;102435.47;4885945;29;20692;-67
2023/04/04 04:28:11;;;;;;;4.32;2.08;;;;;;;-2.43;99.74;102428.31;4895856;29;20225;-67
2023/04/04 04:30:40;;;;;;;6.40;2.55;;;;;;;-2.35;99.83;102433.19;4897820;29;20254;-68
2023/04/04 04:33:12;;;;;;;4.57;3.58;;;;;;;-2.42;99.76;102430.00;4884076;29;20198;-67
2023/04/04 04:36:02;;;;;;;8.52;3.85;;;;;;;-2.35;99.26;102436.72;4906039;29;20201;-67
2023/04/04 04:38:40;;;;;;;4.03;3.63;;;;;;;-2.38;99.57;102438.69;4899305;29;20209;-66
2023/04/04 04:41:09;;;;;;;4.10;3.22;;;;;;;-2.43;98.97;102441.56;4872852;29;20266;-68
2023/04/04 04:43:48;;;;;;;14.48;3.40;;;;;;;-2.47;99.30;102447.94;4895338;29;20777;-66
2023/04/04 04:46:17;;;;;;;6.65;3.45;;;;;;;-2.31;99.43;102435.59;4885397;29;20204;-66
2023/04/04 04:48:48;;;;;;;4.47;2.90;;;;;;;-2.38;99.55;102441.34;4883080;29;20317;-68
2023/04/04 04:51:26;;;;;;;13.00;4.80;;;;;;;-2.43;99.24;102436.28;4893518;29;20210;-65
2023/04/04 04:53:57;;;;;;;7.30;3.92;;;;;;;-2.41;98.86;102439.69;4897537;29;20193;-67
2023/04/04 04:56:28;;;;;;;7.70;3.15;;;;;;;-2.41;99.08;102449.44;4895599;29;20246;-67
2023/04/04 04:59:06;;;;;;;9.38;2.60;;;;;;;-2.41;99.24;102444.13;4898297;29;20222;-68
2023/04/04 05:01:37;;;;;;;5.10;2.80;;;;;;;-2.38;99.23;102444.84;4879737;29;20213;-66
2023/04/04 05:04:08;;;;;;;4.88;2.63;;;;;;;-2.36;99.06;102448.25;4889202;29;20206;-67
2023/04/04 05:06:43;;;;;;;6.05;3.28;;;;;;;-1.88;98.04;102454.50;4895909;29;20622;-66
2023/04/04 05:09:14;;;;;;;4.82;2.40;;;;;;;-0.99;94.37;102449.38;4879920;29;20317;-67
2023/04/04 05:11:43;;;;;;;8.45;3.05;;;;;;;-1.11;91.22;102446.56;4895177;29;20210;-69
2023/04/04 05:14:14;;;;;;;12.23;3.95;;;;;;;-1.24;90.59;102450.88;4886781;29;20190;-67
2023/04/04 05:16:54;;;;;;;2.92;2.50;;;;;;;-1.41;91.28;102460.69;4897192;29;20194;-67
2023/04/04 05:19:32;;;;;;;4.32;3.13;;;;;;;-1.71;93.20;102450.91;4890949;29;20221;-67
2023/04/04 05:22:03;;;;;;;6.45;3.00;;;;;;;-1.87;94.09;102456.22;4884283;29;20213;-67
2023/04/04 05:24:41;;;;;;;3.67;2.47;;;;;;;-1.65;94.45;102461.19;4890352;29;20669;-67
2023/04/04 05:27:13;;;;;;;5.43;2.72;;;;;;;-1.66;93.69;102460.34;4896408;29;20213;-67
2023/04/04 05:29:48;;;;;;;6.22;2.60;;;;;;;-1.77;93.80;102466.25;4898905;29;20591;-67
2023/04/04 05:32:17;;;;;;;5.07;2.92;;;;;;;-1.70;94.96;102471.22;4906317;29;20649;-67
2023/04/04 05:34:56;;;;;;;3.20;2.28;;;;;;;-1.75;94.49;102471.47;4899604;29;20206;-66
2023/04/04 05:37:25;;;;;;;7.57;2.88;;;;;;;-1.77;94.71;102470.69;4883618;29;20213;-67
2023/04/04 05:39:55;;;;;;;7.63;3.22;;;;;;;-1.76;94.49;102475.06;4885034;29;20263;-66
2023/04/04 05:42:25;;;;;;;5.32;2.95;;;;;;;-1.70;94.72;102468.56;4888256;29;20579;-66
2023/04/04 05:44:58;;;;;;;8.45;3.63;;;;;;;-1.62;94.38;102467.19;4901320;29;20193;-67
2023/04/04 05:47:30;;;;;;;4.53;4.15;;;;;;;-1.53;94.22;102460.50;4899886;29;20270;-67
2023/04/04 05:50:02;;;;;;;7.45;2.47;;;;;;;-1.42;94.03;102461.63;4953727;23;20530;-69
2023/04/04 05:52:34;;;;;;;12.48;3.38;;;;;;;-1.32;93.28;102469.91;4959834;28;20678;-69
2023/04/04 05:55:04;;;;;;;5.22;2.40;;;;;;;-1.08;92.15;102463.19;4958329;28;20194;-70
2023/04/04 05:57:34;;;;;;;9.60;4.05;;;;;;;-1.04;91.38;102456.75;4955211;28;20215;-71
2023/04/04 06:00:04;;;;;;;7.88;2.80;;;;;;;-0.92;91.14;102463.16;4948885;29;20194;-69
2023/04/04 06:02:42;;;;;;;5.88;2.50;;;;;;;-0.67;89.64;102473.16;4957617;28;20614;-68
2023/04/04 06:05:18;;;;;;;8.68;3.75;;;;;;;-0.58;89.37;102468.16;4938980;29;20291;-70
2023/04/04 06:07:48;;;;;;;6.30;3.85;;;;;;;-0.62;87.91;102461.31;4952801;28;20737;-70
2023/04/04 06:10:17;;;;;;;5.45;2.80;;;;;;;-0.66;87.85;102465.13;4949525;29;20208;-70
2023/04/04 06:12:46;;;;;;;6.63;2.63;;;;;;;-0.60;87.74;102469.22;4955651;28;20718;-70
2023/04/04 06:15:16;;;;;;;7.13;2.63;;;;;;;-0.50;87.29;102471.22;4937736;29;20731;-69
2023/04/04 06:17:46;;;;;;;7.90;3.15;;;;;;;-0.25;87.10;102467.94;4955387;29;20192;-70
2023/04/04 06:20:18;;;;;;;10.10;7.82;;;;;;;-0.24;86.11;102476.78;4938284;29;20570;-69
2023/04/04 06:22:48;;;;;;;13.30;10.85;;;;;;;-0.18;86.36;102477.25;4938376;28;20251;-69
2023/04/04 06:25:18;;;;;;;13.13;8.68;;;;;;;0.15;85.19;102476.94;4940037;29;20262;-70
2023/04/04 06:27:48;;;;;;;4.28;3.08;;;;;;;0.49;83.88;102474.78;4957051;28;20590;-71
2023/04/04 06:30:17;;;;;;;21.02;15.38;;;;;;;0.48;82.57;102481.94;4955924;29;20542;-70
2023/04/04 06:32:51;;;;;;;13.43;3.58;;;;;;;0.71;81.71;102477.78;4946673;29;20204;-68
2023/04/04 06:35:24;;;;;;;4.97;3.20;;;;;;;0.78;81.30;102484.41;4947084;28;20199;-70
2023/04/04 06:38:00;;;;;;;9.70;5.30;;;;;;;0.65;80.30;102475.50;4938004;29;20598;-69
2023/04/04 06:40:30;;;;;;;5.35;2.83;;;;;;;0.63;80.80;102480.94;4944647;29;20201;-69
2023/04/04 06:43:00;;;;;;;10.13;8.73;;;;;;;0.72;80.67;102487.50;4953019;28;20702;-68
2023/04/04 06:45:36;;;;;;;5.07;4.50;;;;;;;0.91;79.73;102482.66;4942433;29;20200;-70
2023/04/04 06:48:05;;;;;;;3.35;2.40;;;;;;;1.11;77.98;102476.88;4957814;28;20221;-68
2023/04/04 06:50:36;;;;;;;4.93;4.55;;;;;;;1.19;76.85;102479.88;4957075;28;20205;-69
2023/04/04 06:53:09;;;;;;;11.15;10.02;;;;;;;1.11;77.06;102482.22;4939257;29;20248;-69
2023/04/04 06:55:38;;;;;;;6.35;3.55;;;;;;;1.10;76.75;102480.50;4953603;28;20272;-69
2023/04/04 06:58:08;;;;;;;10.70;3.92;;;;;;;1.35;76.61;102478.84;4930037;29;20643;-69
2023/04/04 07:00:37;;;;;;;9.15;2.92;;;;;;;1.31;75.63;102481.69;4954433;29;20196;-69
2023/04/04 07:03:06;;;;;;;8.98;3.58;;;;;;;1.26;75.84;102475.81;4938365;29;20817;-69
2023/04/04 07:05:40;;;;;;;2.63;1.80;;;;;;;1.37;75.10;102476.91;4949361;28;20198;-69
2023/04/04 07:08:10;;;;;;;8.52;2.45;;;;;;;1.42;73.92;102475.63;4946531;29;20695;-68
2023/04/04 07:10:39;;;;;;;3.38;1.90;;;;;;;1.53;73.44;102472.25;4944899;28;20193;-69
2023/04/04 07:13:09;;;;;;;2.60;1.35;;;;;;;1.58;72.09;102468.31;4932745;29;20220;-68
2023/04/04 07:15:39;;;;;;;4.15;1.85;;;;;;;1.66;72.30;102462.41;4949987;29;20193;-68
2023/04/04 07:18:08;;;;;;;5.05;2.17;;;;;;;1.73;71.92;102463.72;4947530;28;20662;-69
2023/04/04 07:20:39;;;;;;;8.32;2.50;;;;;;;1.91;71.63;102464.22;4942701;29;20201;-69
2023/04/04 07:23:09;;;;;;;4.40;2.20;;;;;;;2.19;70.93;102462.16;4941272;28;20194;-72
2023/04/04 07:25:39;;;;;;;6.05;2.15;;;;;;;2.41;70.05;102457.94;4944416;28;20197;-68
2023/04/04 07:28:11;;;;;;;6.90;2.45;;;;;;;2.48;69.59;102456.53;4944576;29;20217;-69
2023/04/04 07:30:41;;;;;;;3.55;2.28;;;;;;;2.47;68.80;102455.66;4946460;28;20454;-69
2023/04/04 07:33:17;;;;;;;13.93;2.58;;;;;;;2.40;69.28;102442.88;4947106;28;20252;-69
2023/04/04 07:35:47;;;;;;;6.10;2.17;;;;;;;2.42;69.20;102457.00;4945017;29;20631;-69
2023/04/04 07:38:17;;;;;;;5.78;3.13;;;;;;;2.69;68.60;102449.59;4944897;28;20639;-69
2023/04/04 07:40:48;;;;;;;5.93;2.55;;;;;;;2.66;68.44;102449.00;4945653;28;20608;-69
2023/04/04 07:43:17;;;;;;;7.50;2.38;;;;;;;2.49;68.55;102443.06;4944807;28;20198;-69
2023/04/04 07:45:46;;;;;;;7.18;3.20;;;;;;;2.59;68.86;102443.22;4946233;28;20197;-68
2023/04/04 07:48:16;;;;;;;5.38;2.63;;;;;;;2.69;67.72;102438.91;4948895;28;20258;-69
2023/04/04 07:50:46;;;;;;;2.15;1.25;;;;;;;2.46;67.20;102437.09;4946645;28;20758;-69
2023/04/04 07:53:15;;;;;;;4.68;3.17;;;;;;;2.77;67.65;102439.19;4950070;28;20319;-69
2023/04/04 07:55:44;;;;;;;8.75;2.65;;;;;;;3.00;67.33;102438.31;4944480;28;20201;-68
2023/04/04 07:58:14;;;;;;;3.85;1.80;;;;;;;3.23;66.09;102438.41;4947997;29;20714;-69
2023/04/04 08:00:43;;;;;;;3.50;1.90;;;;;;;3.14;65.19;102433.75;4945810;28;20673;-68
2023/04/04 08:03:13;;;;;;;2.70;2.13;;;;;;;3.28;65.01;102438.91;4948173;29;20673;-69
2023/04/04 08:05:43;;;;;;;4.75;3.08;;;;;;;3.56;64.30;102430.44;4946305;28;20222;-68
2023/04/04 08:08:13;;;;;;;3.20;2.42;;;;;;;3.66;64.50;102436.78;4945829;28;20226;-68
2023/04/04 08:10:44;;;;;;;8.05;1.95;;;;;;;3.62;63.28;102437.16;4944466;28;20213;-69
2023/04/04 08:13:13;;;;;;;3.50;1.20;;;;;;;3.14;63.50;102436.44;4944040;28;20657;-69
2023/04/04 08:15:42;;;;;;;7.53;2.45;;;;;;;3.23;64.18;102433.91;4948808;28;20227;-67
2023/04/04 08:18:11;;;;;;;3.17;2.22;;;;;;;3.57;63.62;102431.31;4947924;28;20771;-68
2023/04/04 08:20:41;;;;;;;1.58;1.23;;;;;;;3.61;61.32;102432.75;4946535;29;20727;-67
2023/04/04 08:23:12;;;;;;;5.22;1.60;;;;;;;3.75;61.23;102429.84;4944565;29;20284;-68
2023/04/04 08:25:42;;;;;;;2.05;1.65;;;;;;;3.91;60.46;102425.84;4947573;28;20202;-69
2023/04/04 08:28:12;;;;;;;2.22;1.52;;;;;;;3.77;60.15;102425.25;4950578;28;20268;-69
2023/04/04 08:30:42;;;;;;;3.80;1.25;;;;;;;3.74;60.52;102423.66;4950319;28;20704;-67
2023/04/04 08:33:11;;;;;;;4.75;2.22;;;;;;;3.84;61.20;102429.97;4949059;28;20224;-68
2023/04/04 08:35:40;;;;;;;5.85;2.83;;;;;;;3.94;60.31;102422.06;4936728;29;20202;-70
2023/04/04 08:38:10;;;;;;;3.67;1.42;;;;;;;3.90;59.78;102424.16;4950563;28;20212;-67
2023/04/04 08:40:41;;;;;;;3.40;1.92;;;;;;;4.02;58.72;102424.16;4952088;28;20225;-68
2023/04/04 08:43:12;;;;;;;3.58;2.03;;;;;;;3.80;59.26;102427.66;4944749;29;20207;-69
2023/04/04 08:45:43;;;;;;;2.95;2.30;;;;;;;3.84;58.29;102427.31;4932636;28;20204;-70
2023/04/04 08:48:14;;;;;;;3.53;1.77;;;;;;;3.71;58.36;102423.91;4927310;29;20708;-69
2023/04/04 08:50:43;;;;;;;7.10;2.70;;;;;;;4.03;58.10;102428.50;4947447;29;20660;-68
2023/04/04 08:53:14;;;;;;;3.97;1.98;;;;;;;3.84;59.43;102419.28;4927792;29;20703;-69
2023/04/04 08:55:45;;;;;;;2.13;1.50;;;;;;;3.82;56.16;102417.72;4947159;28;20728;-69
2023/04/04 08:58:16;;;;;;;4.22;1.63;;;;;;;3.85;57.83;102415.63;4946905;28;20715;-69
2023/04/04 09:00:45;;;;;;;2.67;1.90;;;;;;;4.18;57.53;102406.72;4948412;28;20677;-68
2023/04/04 09:03:20;;;;;;;6.30;2.15;;;;;;;4.53;56.58;102411.03;4946832;28;20201;-68
2023/04/04 09:05:51;;;;;;;2.95;1.70;;;;;;;4.50;55.13;102412.13;4953050;28;20206;-69
2023/04/04 09:08:22;;;;;;;3.72;1.95;;;;;;;4.58;53.99;102407.00;4946551;28;20304;-69
2023/04/04 09:10:54;;;;;;;4.20;1.70;;;;;;;4.01;54.43;102409.91;4946241;28;20229;-68
2023/04/04 09:13:23;;;;;;;4.03;1.55;;;;;;;4.10;55.47;102402.94;4952848;28;20214;-69
2023/04/04 09:15:54;;;;;;;4.68;1.70;;;;;;;4.42;54.30;102401.19;4933204;29;20202;-69
2023/04/04 09:18:23;;;;;;;5.10;2.85;;;;;;;4.68;53.85;102399.88;4957458;29;20221;-70
2023/04/04 09:20:52;;;;;;;1.75;1.38;;;;;;;4.49;54.03;102399.72;4962634;28;20628;-69
2023/04/04 09:23:22;;;;;;;4.68;1.90;;;;;;;4.81;54.01;102402.38;4938802;29;20345;-69
2023/04/04 09:25:54;;;;;;;4.38;1.63;;;;;;;4.93;52.97;102404.06;4961377;28;20699;-68
2023/04/04 09:28:33;;;;;;;3.05;1.40;;;;;;;5.01;53.35;102398.88;4949141;28;20783;-70
2023/04/04 09:31:04;;;;;;;2.05;1.33;;;;;;;4.82;52.95;102399.59;4952415;28;20217;-68
2023/04/04 09:33:35;;;;;;;2.13;1.90;;;;;;;4.58;53.33;102400.78;4951530;29;20217;-68
2023/04/04 09:36:08;;;;;;;4.03;3.00;;;;;;;4.63;53.15;102393.19;4934924;28;20195;-69
2023/04/04 09:38:41;;;;;;;2.10;1.63;;;;;;;4.57;52.68;102391.88;4954680;28;20222;-68
2023/04/04 09:41:15;;;;;;;5.65;5.03;;;;;;;4.67;51.60;102392.81;4957925;29;20190;-68
2023/04/04 09:43:46;;;;;;;4.85;2.78;;;;;;;4.84;50.88;102393.25;4955989;28;20222;-69
2023/04/04 09:46:19;;;;;;;4.60;4.15;;;;;;;5.26;49.75;102397.66;4937671;29;20289;-70
2023/04/04 09:48:52;;;;;;;9.38;8.20;;;;;;;5.62;47.76;102375.66;4965908;28;20229;-69
2023/04/04 09:51:21;;;;;;;5.00;2.28;;;;;;;5.59;47.82;102375.94;4962719;28;20225;-68
2023/04/04 09:53:52;;;;;;;13.82;11.43;;;;;;;5.39;47.77;102384.03;4973356;28;20206;-68
2023/04/04 09:56:22;;;;;;;12.45;11.25;;;;;;;5.13;47.79;102379.03;4971035;29;20199;-70
2023/04/04 09:58:53;;;;;;;26.30;23.65;;;;;;;4.89;47.46;102385.66;4969712;28;20238;-69
2023/04/04 10:01:33;;;;;;;38.50;34.72;;;;;;;4.71;47.99;102383.53;4973067;28;20190;-69
2023/04/04 10:04:05;;;;;;;25.02;22.60;;;;;;;4.92;48.81;102377.34;4971701;28;20226;-69
2023/04/04 10:06:37;;;;;;;1.80;1.08;;;;;;;5.23;47.63;102376.44;4954821;29;20184;-69
2023/04/04 10:09:08;;;;;;;2.65;2.35;;;;;;;5.42;46.51;102367.66;4983339;28;20294;-69
2023/04/04 10:11:39;;;;;;;4.05;2.85;;;;;;;5.62;46.12;102364.06;4963968;28;20218;-69
2023/04/04 10:14:11;;;;;;;15.15;9.93;;;;;;;6.05;45.02;102369.25;4972212;28;20217;-69
2023/04/04 10:16:45;;;;;;;2.55;1.35;;;;;;;6.43;46.40;102374.69;4966750;28;20199;-69
2023/04/04 10:19:17;;;;;;;2.25;1.48;;;;;;;6.57;46.69;102351.06;4963203;29;20222;-68
2023/04/04 10:21:47;;;;;;;2.00;1.23;;;;;;;6.61;47.27;102369.47;4954974;28;20223;-69
2023/04/04 10:24:17;;;;;;;3.10;1.23;;;;;;;6.06;46.78;102371.78;4965122;28;20190;-69
2023/04/04 10:26:48;;;;;;;3.55;2.45;;;;;;;6.28;46.64;102367.16;4975835;28;20267;-70
2023/04/04 10:29:18;;;;;;;2.80;1.33;;;;;;;6.35;46.18;102361.09;4969195;29;20245;-70
2023/04/04 10:31:53;;;;;;;2.90;1.15;;;;;;;6.60;45.35;102354.31;4965559;28;20295;-70
2023/04/04 10:34:30;;;;;;;10.38;9.13;;;;;;;6.25;45.83;102368.28;4972845;28;20179;-70
2023/04/04 10:37:07;;;;;;;3.90;2.47;;;;;;;5.76;46.01;102361.00;4973093;28;20194;-69
2023/04/04 10:39:44;;;;;;;2.65;1.13;;;;;;;5.58;46.69;102352.75;4972411;28;20219;-70
2023/04/04 10:42:17;;;;;;;2.75;1.58;;;;;;;5.43;47.23;102354.09;4967633;28;20270;-70
2023/04/04 10:44:47;;;;;;;2.13;1.20;;;;;;;5.41;46.85;102356.06;4972119;28;20203;-69
2023/04/04 10:47:20;;;;;;;4.68;1.85;;;;;;;5.53;45.33;102355.00;4969212;29;20196;-70
2023/04/04 10:49:51;;;;;;;1.00;0.90;;;;;;;5.99;44.76;102351.81;4967946;28;20238;-69
2023/04/04 10:52:22;;;;;;;4.60;1.40;;;;;;;6.46;43.10;102350.22;4971853;28;20171;-69
2023/04/04 10:54:55;;;;;;;3.45;1.25;;;;;;;6.53;42.73;102345.94;4972712;28;20200;-70
2023/04/04 10:57:27;;;;;;;4.75;1.38;;;;;;;6.91;42.90;102341.56;4966989;28;20216;-70
2023/04/04 10:59:57;;;;;;;2.50;1.33;;;;;;;6.84;42.05;102332.34;4963732;28;20216;-70
2023/04/04 11:02:58;;;;;;;5.97;2.78;;;;;;;6.85;43.29;102321.47;4967773;28;20230;-70
2023/04/04 11:05:32;;;;;;;5.57;0.95;;;;;;;6.88;42.03;102323.84;4919907;29;20201;-69
2023/04/04 11:08:03;;;;;;;3.25;1.65;;;;;;;6.73;41.29;102319.06;4954883;28;20256;-70
2023/04/04 11:10:38;;;;;;;3.65;1.10;;;;;;;5.91;42.09;102318.53;4961036;28;20206;-70
2023/04/04 11:13:15;;;;;;;4.38;1.30;;;;;;;5.76;43.15;102322.59;4959195;28;20195;-69
2023/04/04 11:15:53;;;;;;;2.88;0.90;;;;;;;5.61;43.91;102314.91;4958453;28;20214;-69
2023/04/04 11:18:49;;;;;;;4.90;1.05;;;;;;;5.64;43.95;102306.56;4954743;29;20345;-68
2023/04/04 11:21:22;;;;;;;3.00;1.38;;;;;;;5.85;43.31;102305.66;4926718;28;20209;-70
2023/04/04 11:24:14;;;;;;;2.17;1.33;;;;;;;6.55;42.83;102305.47;4960100;28;20226;-70
2023/04/04 11:26:46;;;;;;;3.08;1.17;;;;;;;6.98;41.85;102305.00;4958268;28;20202;-70
2023/04/04 11:29:43;;;;;;;3.90;1.70;;;;;;;6.97;41.03;102300.63;4957909;28;20238;-68
2023/04/04 11:32:29;;;;;;;3.70;1.20;;;;;;;6.72;40.84;102307.47;4951257;28;20205;-69
2023/04/04 11:34:58;;;;;;;3.60;1.13;;;;;;;6.45;39.90;102302.78;4954790;28;20211;-69
2023/04/04 11:37:33;;;;;;;2.75;1.33;;;;;;;6.82;41.24;102294.00;4945804;28;20193;-70
2023/04/04 11:40:12;;;;;;;1.63;1.10;;;;;;;7.21;39.80;102290.19;4953911;28;20218;-70
2023/04/04 11:42:43;;;;;;;3.92;1.30;;;;;;;6.82;40.24;102291.31;4946938;28;20211;-70
2023/04/04 11:45:20;;;;;;;3.45;1.02;;;;;;;6.45;40.60;102277.72;4953602;28;20196;-69
2023/04/04 11:47:50;;;;;;;2.08;1.17;;;;;;;6.51;40.83;102282.53;4948707;29;20199;-68
2023/04/04 11:50:19;;;;;;;3.65;1.42;;;;;;;6.80;40.72;102271.75;4947424;28;20215;-69